Terminal Aerodrome Forecast
Issued by NWS Pueblo, CO

Home | Current Version | Previous Version | Text Only | Print | Product List | Glossary On
Versions: 1 2 3 4 5 6 7 8 9 10 11 12 13 14 15 16 17 18 19 20 21 22 23
000
FTUS45 KPUB 270820 AAA
TAFCOS
TAF AMD
KCOS 270820Z 2708/2806 VRB05KT P6SM BKN015
     FM271600 16010KT P6SM FEW100
     FM271900 06012KT P6SM SCT100
     FM272200 09013KT P6SM VCTS SCT100CB=

USA.gov is the U.S. government's official web portal to all federal, state and local government web resources and services.